Time;durP1;ratioP1;P1;durP2;ratioP2;P2;SDS_P1;SDS_P2;PMS_P1;PMS_P2;Temp;Humidity;BMP_temperature;BMP_pressure;BME280_temperature;BME280_humidity;BME280_pressure;Samples;Min_cycle;Max_cycle;Signal;HPM_P1;HPM_P2
2023/04/10 00:01:04;;;;;;;;;;;8.00;99.90;;;;;;5055972;28;20368;-45
2023/04/10 00:03:31;;;;;;;;;;;8.00;99.90;;;;;;5057852;28;19943;-44
2023/04/10 00:05:58;;;;;;;;;;;8.00;99.90;;;;;;5055362;28;19938;-43
2023/04/10 00:08:24;;;;;;;;;;;8.00;99.90;;;;;;5057560;28;19989;-41
2023/04/10 00:10:52;;;;;;;;;;;7.90;99.90;;;;;;5060096;28;19981;-42
2023/04/10 00:13:18;;;;;;;;;;;7.90;99.90;;;;;;5055973;28;20483;-40
2023/04/10 00:15:46;;;;;;;;;;;7.90;99.90;;;;;;5056747;28;19989;-41
2023/04/10 00:18:13;;;;;;;;;;;7.90;99.90;;;;;;5050055;28;19956;-43
2023/04/10 00:20:39;;;;;;;;;;;7.80;99.90;;;;;;5041706;28;19935;-39
2023/04/10 00:23:06;;;;;;;;;;;7.80;99.90;;;;;;5052034;28;20350;-41
2023/04/10 00:25:33;;;;;;;;;;;7.80;99.90;;;;;;5048190;28;20356;-41
2023/04/10 00:27:59;;;;;;;;;;;7.80;99.90;;;;;;5053466;28;20361;-41
2023/04/10 00:30:26;;;;;;;;;;;7.70;99.90;;;;;;5056516;28;19960;-42
2023/04/10 00:32:54;;;;;;;;;;;7.70;99.90;;;;;;5057123;28;19940;-41
2023/04/10 00:35:21;;;;;;;;;;;7.70;99.90;;;;;;5048654;28;20414;-41
2023/04/10 00:37:49;;;;;;;;;;;7.70;99.90;;;;;;5055913;28;20360;-40
2023/04/10 00:40:15;;;;;;;;;;;7.70;99.90;;;;;;5061225;28;19993;-40
2023/04/10 00:42:42;;;;;;;;;;;7.70;99.90;;;;;;5042775;28;19960;-40
2023/04/10 00:45:09;;;;;;;;;;;7.60;99.90;;;;;;5052704;28;19940;-39
2023/04/10 00:47:36;;;;;;;;;;;7.60;99.90;;;;;;5051296;28;19937;-41
2023/04/10 00:50:05;;;;;;;;;;;7.60;99.90;;;;;;5053619;28;19950;-42
2023/04/10 00:52:32;;;;;;;;;;;7.60;99.90;;;;;;5070125;28;19938;-42
2023/04/10 00:54:58;;;;;;;;;;;7.50;99.90;;;;;;5039670;28;20350;-41
2023/04/10 00:57:25;;;;;;;;;;;7.50;99.90;;;;;;5051654;28;19940;-40
2023/04/10 00:59:52;;;;;;;;;;;7.50;99.90;;;;;;5044680;28;19979;-40
2023/04/10 01:02:19;;;;;;;;;;;7.50;99.90;;;;;;5047695;28;20414;-40
2023/04/10 01:04:46;;;;;;;;;;;7.40;99.90;;;;;;5050371;28;20027;-41
2023/04/10 01:07:17;;;;;;;;;;;7.40;99.90;;;;;;5050835;28;19991;-42
2023/04/10 01:09:44;;;;;;;;;;;7.40;99.90;;;;;;5043097;28;19945;-42
2023/04/10 01:12:15;;;;;;;;;;;7.30;99.90;;;;;;5055572;28;19939;-44
2023/04/10 01:14:43;;;;;;;;;;;7.30;99.90;;;;;;5060779;28;19986;-40
2023/04/10 01:17:11;;;;;;;;;;;7.30;99.90;;;;;;5054045;28;19963;-42
2023/04/10 01:19:45;;;;;;;;;;;7.30;99.90;;;;;;5052178;28;20379;-42
2023/04/10 01:22:12;;;;;;;;;;;7.20;99.90;;;;;;5063939;28;19951;-42
2023/04/10 01:24:45;;;;;;;;;;;7.30;99.90;;;;;;5059088;28;19936;-41
2023/04/10 01:27:13;;;;;;;;;;;7.20;99.90;;;;;;5056007;28;19975;-41
2023/04/10 01:29:41;;;;;;;;;;;7.20;99.90;;;;;;5050532;28;19962;-41
2023/04/10 01:32:08;;;;;;;;;;;7.20;99.90;;;;;;5047211;28;19942;-40
2023/04/10 01:34:36;;;;;;;;;;;7.20;99.90;;;;;;5058977;28;19937;-41
2023/04/10 01:37:04;;;;;;;;;;;7.10;99.90;;;;;;5049605;28;19948;-41
2023/04/10 01:39:31;;;;;;;;;;;7.10;99.90;;;;;;5059418;28;19940;-40
2023/04/10 01:41:58;;;;;;;;;;;7.10;99.90;;;;;;5051516;28;19941;-41
2023/04/10 01:44:26;;;;;;;;;;;7.10;99.90;;;;;;5051338;28;19952;-40
2023/04/10 01:46:55;;;;;;;;;;;7.10;99.90;;;;;;5050826;28;19937;-42
2023/04/10 01:49:22;;;;;;;;;;;7.10;99.90;;;;;;5047464;28;19949;-40
2023/04/10 01:51:48;;;;;;;;;;;7.00;99.90;;;;;;5056358;28;20443;-40
2023/04/10 01:54:15;;;;;;;;;;;7.00;99.90;;;;;;5065296;28;19933;-41
2023/04/10 01:56:42;;;;;;;;;;;7.00;99.90;;;;;;5054512;28;19989;-43
2023/04/10 01:59:08;;;;;;;;;;;7.00;99.90;;;;;;5035810;28;19941;-41
2023/04/10 02:01:35;;;;;;;;;;;7.00;99.90;;;;;;5046722;28;20415;-43
2023/04/10 02:04:03;;;;;;;;;;;7.00;99.90;;;;;;5055717;28;19931;-42
2023/04/10 02:06:33;;;;;;;;;;;7.00;99.90;;;;;;5063235;28;19977;-41
2023/04/10 02:09:02;;;;;;;;;;;6.90;99.90;;;;;;5053559;28;19940;-42
2023/04/10 02:11:32;;;;;;;;;;;6.90;99.90;;;;;;5040740;28;19953;-42
2023/04/10 02:13:59;;;;;;;;;;;6.90;99.90;;;;;;5057228;28;19939;-42
2023/04/10 02:16:26;;;;;;;;;;;6.90;99.90;;;;;;5055763;28;20574;-40
2023/04/10 02:18:53;;;;;;;;;;;6.90;99.90;;;;;;5054803;28;19957;-41
2023/04/10 02:21:21;;;;;;;;;;;6.90;99.90;;;;;;5055371;28;19933;-41
2023/04/10 02:23:47;;;;;;;;;;;6.90;99.90;;;;;;5056416;28;19962;-41
2023/04/10 02:26:14;;;;;;;;;;;6.90;99.90;;;;;;5052161;28;19933;-44
2023/04/10 02:28:41;;;;;;;;;;;6.90;99.90;;;;;;5054479;28;20247;-42
2023/04/10 02:31:07;;;;;;;;;;;6.90;99.90;;;;;;5053006;28;19948;-40
2023/04/10 02:33:34;;;;;;;;;;;6.90;99.90;;;;;;5060071;28;19934;-42
2023/04/10 02:36:01;;;;;;;;;;;6.80;99.90;;;;;;5052993;28;19933;-41
2023/04/10 02:38:29;;;;;;;;;;;6.90;99.90;;;;;;5040125;28;20417;-40
2023/04/10 02:40:56;;;;;;;;;;;6.80;99.90;;;;;;5062111;28;20376;-40
2023/04/10 02:43:23;;;;;;;;;;;6.80;99.90;;;;;;5054689;28;20346;-41
2023/04/10 02:45:50;;;;;;;;;;;6.80;99.90;;;;;;5069076;28;20403;-41
2023/04/10 02:48:16;;;;;;;;;;;6.80;99.90;;;;;;5054255;28;19959;-41
2023/04/10 02:50:45;;;;;;;;;;;6.70;99.90;;;;;;5052637;28;20460;-41
2023/04/10 02:53:12;;;;;;;;;;;6.80;99.90;;;;;;5056299;28;19941;-40
2023/04/10 02:55:40;;;;;;;;;;;6.80;99.90;;;;;;5065061;28;19987;-41
2023/04/10 02:58:07;;;;;;;;;;;6.70;99.90;;;;;;5034990;28;19938;-40
2023/04/10 03:00:33;;;;;;;;;;;6.80;99.90;;;;;;5040359;28;20047;-40
2023/04/10 03:03:00;;;;;;;;;;;6.70;99.90;;;;;;5048465;28;20438;-40
2023/04/10 03:05:27;;;;;;;;;;;6.70;99.90;;;;;;5059947;28;20467;-40
2023/04/10 03:07:54;;;;;;;;;;;6.70;99.90;;;;;;5045012;28;19937;-40
2023/04/10 03:10:21;;;;;;;;;;;6.70;99.90;;;;;;5073513;28;20039;-41
2023/04/10 03:12:49;;;;;;;;;;;6.70;99.90;;;;;;5034948;28;19987;-40
2023/04/10 03:15:15;;;;;;;;;;;6.80;99.90;;;;;;5050188;28;20408;-41
2023/04/10 03:17:42;;;;;;;;;;;6.70;99.90;;;;;;5060670;28;19955;-41
2023/04/10 03:20:09;;;;;;;;;;;6.70;99.90;;;;;;5053606;28;19920;-40
2023/04/10 03:22:36;;;;;;;;;;;6.70;99.90;;;;;;5043570;28;19965;-41
2023/04/10 03:25:03;;;;;;;;;;;6.70;99.90;;;;;;5062664;28;19988;-41
2023/04/10 03:27:31;;;;;;;;;;;6.70;99.90;;;;;;5053923;28;19960;-40
2023/04/10 03:29:59;;;;;;;;;;;6.70;99.90;;;;;;5052980;28;19947;-40
2023/04/10 03:32:27;;;;;;;;;;;6.70;99.90;;;;;;5045509;28;19942;-41
2023/04/10 03:34:53;;;;;;;;;;;6.70;99.90;;;;;;5048700;28;19937;-40
2023/04/10 03:37:20;;;;;;;;;;;6.70;99.90;;;;;;5051036;28;20359;-41
2023/04/10 03:39:46;;;;;;;;;;;6.60;99.90;;;;;;5045134;28;20359;-44
2023/04/10 03:42:13;;;;;;;;;;;6.70;99.90;;;;;;5053047;28;19938;-42
2023/04/10 03:44:40;;;;;;;;;;;6.70;99.90;;;;;;5060838;28;19930;-42
2023/04/10 03:47:08;;;;;;;;;;;6.60;99.90;;;;;;5052755;28;19976;-40
2023/04/10 03:49:34;;;;;;;;;;;6.60;99.90;;;;;;5053626;28;19989;-40
2023/04/10 03:52:01;;;;;;;;;;;6.60;99.90;;;;;;5042543;28;20005;-41
2023/04/10 03:54:28;;;;;;;;;;;6.60;99.90;;;;;;5042182;28;19990;-40
2023/04/10 03:56:55;;;;;;;;;;;6.60;99.90;;;;;;5053191;28;20444;-41
2023/04/10 03:59:22;;;;;;;;;;;6.60;99.90;;;;;;5052129;28;19976;-40
2023/04/10 04:01:48;;;;;;;;;;;6.60;99.90;;;;;;5042097;28;21274;-42
2023/04/10 04:04:16;;;;;;;;;;;6.60;99.90;;;;;;5057202;28;19921;-43
2023/04/10 04:06:43;;;;;;;;;;;6.60;99.90;;;;;;5056500;28;19993;-40
2023/04/10 04:09:09;;;;;;;;;;;6.60;99.90;;;;;;5059445;28;19981;-40
2023/04/10 04:11:37;;;;;;;;;;;6.70;99.90;;;;;;5042192;28;19950;-41
2023/04/10 04:14:04;;;;;;;;;;;6.60;99.90;;;;;;5051334;28;20318;-41
2023/04/10 04:16:30;;;;;;;;;;;6.70;99.90;;;;;;5062202;28;20035;-41
2023/04/10 04:18:57;;;;;;;;;;;6.70;99.90;;;;;;5051886;28;20304;-43
2023/04/10 04:21:25;;;;;;;;;;;6.70;99.90;;;;;;5052977;28;19988;-43
2023/04/10 04:23:52;;;;;;;;;;;6.70;99.90;;;;;;5055820;28;19994;-41
2023/04/10 04:26:18;;;;;;;;;;;6.80;99.90;;;;;;5064996;28;19925;-42
2023/04/10 04:28:46;;;;;;;;;;;6.70;99.90;;;;;;5055823;28;19976;-44
2023/04/10 04:31:12;;;;;;;;;;;6.80;99.90;;;;;;5051469;28;19957;-39
2023/04/10 04:33:39;;;;;;;;;;;6.80;99.90;;;;;;5052852;28;20658;-42
2023/04/10 04:36:06;;;;;;;;;;;6.80;99.90;;;;;;5044683;28;20015;-42
2023/04/10 04:38:34;;;;;;;;;;;6.80;99.90;;;;;;5063861;28;19984;-42
2023/04/10 04:41:01;;;;;;;;;;;6.80;99.90;;;;;;5050890;28;19939;-42
2023/04/10 04:43:27;;;;;;;;;;;6.80;99.90;;;;;;5039321;28;20026;-42
2023/04/10 04:45:54;;;;;;;;;;;6.90;99.90;;;;;;5052408;28;19998;-42
2023/04/10 04:48:21;;;;;;;;;;;6.80;99.90;;;;;;5067145;28;19982;-41
2023/04/10 04:50:47;;;;;;;;;;;6.80;99.90;;;;;;5049804;28;19949;-42
2023/04/10 04:53:14;;;;;;;;;;;7.00;99.90;;;;;;5043282;28;19968;-40
2023/04/10 04:55:42;;;;;;;;;;;6.90;99.90;;;;;;5065075;28;19934;-41
2023/04/10 04:58:09;;;;;;;;;;;6.90;99.90;;;;;;5042979;28;19976;-41
2023/04/10 05:00:35;;;;;;;;;;;6.90;99.90;;;;;;5046390;28;20520;-43
2023/04/10 05:03:02;;;;;;;;;;;7.00;99.90;;;;;;5044376;28;20046;-43
2023/04/10 05:05:29;;;;;;;;;;;7.00;99.90;;;;;;5054637;28;19956;-42
2023/04/10 05:07:55;;;;;;;;;;;7.00;99.90;;;;;;5044859;28;19990;-42
2023/04/10 05:10:22;;;;;;;;;;;7.00;99.90;;;;;;5048076;28;20299;-44
2023/04/10 05:12:50;;;;;;;;;;;7.10;99.90;;;;;;5048013;28;19929;-41
2023/04/10 05:15:17;;;;;;;;;;;7.10;99.90;;;;;;5052262;28;20524;-40
2023/04/10 05:17:43;;;;;;;;;;;7.10;99.90;;;;;;5047708;28;20000;-41
2023/04/10 05:20:10;;;;;;;;;;;7.10;99.90;;;;;;5052498;28;20523;-40
2023/04/10 05:22:37;;;;;;;;;;;7.20;99.90;;;;;;5047651;28;19937;-42
2023/04/10 05:25:04;;;;;;;;;;;7.20;99.90;;;;;;5048099;28;20382;-42
2023/04/10 05:27:31;;;;;;;;;;;7.20;99.90;;;;;;5050903;28;19995;-42
2023/04/10 05:29:59;;;;;;;;;;;7.30;99.90;;;;;;5050735;28;19938;-43
2023/04/10 05:32:25;;;;;;;;;;;7.30;99.90;;;;;;5049073;28;19995;-41
2023/04/10 05:34:52;;;;;;;;;;;7.30;99.90;;;;;;5055134;28;19989;-40
2023/04/10 05:37:19;;;;;;;;;;;7.30;99.90;;;;;;5059453;28;19933;-42
2023/04/10 05:39:45;;;;;;;;;;;7.40;99.90;;;;;;5059921;28;19928;-40
2023/04/10 05:42:12;;;;;;;;;;;7.50;99.90;;;;;;5045467;28;19933;-41
2023/04/10 05:44:39;;;;;;;;;;;7.60;99.90;;;;;;5044933;28;20138;-44
2023/04/10 05:47:07;;;;;;;;;;;7.60;99.90;;;;;;5036305;28;19935;-42
2023/04/10 05:49:34;;;;;;;;;;;7.60;99.90;;;;;;5047735;28;20483;-44
2023/04/10 05:52:00;;;;;;;;;;;7.70;99.90;;;;;;5051927;28;19959;-40
2023/04/10 05:54:27;;;;;;;;;;;7.70;99.90;;;;;;5050676;28;20450;-40
2023/04/10 05:56:54;;;;;;;;;;;7.70;99.90;;;;;;5046309;28;20398;-41
2023/04/10 05:59:20;;;;;;;;;;;7.70;99.90;;;;;;5049625;28;19937;-43
2023/04/10 06:01:47;;;;;;;;;;;7.70;99.90;;;;;;5057244;28;19971;-40
2023/04/10 06:04:15;;;;;;;;;;;7.90;99.90;;;;;;5052207;28;19939;-40
2023/04/10 06:06:42;;;;;;;;;;;7.80;99.90;;;;;;5043324;28;19955;-41
2023/04/10 06:09:08;;;;;;;;;;;7.80;99.90;;;;;;5054522;28;19938;-40
2023/04/10 06:11:35;;;;;;;;;;;7.80;99.90;;;;;;5055200;28;20007;-41
2023/04/10 06:14:02;;;;;;;;;;;7.90;99.90;;;;;;5046869;28;19933;-42
2023/04/10 06:16:29;;;;;;;;;;;7.90;99.90;;;;;;5047849;28;20007;-42
2023/04/10 06:18:55;;;;;;;;;;;8.00;99.90;;;;;;5047981;28;19935;-42
2023/04/10 06:21:23;;;;;;;;;;;8.10;99.90;;;;;;5047993;28;19934;-42
2023/04/10 06:23:50;;;;;;;;;;;8.20;99.90;;;;;;5050372;28;19946;-43
2023/04/10 06:26:17;;;;;;;;;;;8.20;99.90;;;;;;5046376;28;19933;-43
2023/04/10 06:28:44;;;;;;;;;;;8.30;99.90;;;;;;5046569;28;20446;-40
2023/04/10 06:31:11;;;;;;;;;;;8.30;99.90;;;;;;5048068;28;19972;-41
2023/04/10 06:33:38;;;;;;;;;;;8.40;99.90;;;;;;5050048;28;19959;-39
2023/04/10 06:36:05;;;;;;;;;;;8.50;99.90;;;;;;5043784;28;20028;-43
2023/04/10 06:38:36;;;;;;;;;;;8.60;99.90;;;;;;5050607;28;19969;-46
2023/04/10 06:41:03;;;;;;;;;;;8.60;99.90;;;;;;5052837;28;19934;-44
2023/04/10 06:43:31;;;;;;;;;;;8.70;99.90;;;;;;5051966;28;20423;-41
2023/04/10 06:45:57;;;;;;;;;;;8.80;99.90;;;;;;5049242;28;19941;-51
2023/04/10 06:48:24;;;;;;;;;;;8.80;99.90;;;;;;5046012;28;19937;-43
2023/04/10 06:50:50;;;;;;;;;;;8.90;99.90;;;;;;5047892;28;21173;-44
2023/04/10 06:53:17;;;;;;;;;;;8.90;99.90;;;;;;5047578;28;21324;-41
2023/04/10 06:55:45;;;;;;;;;;;8.90;99.90;;;;;;5052948;28;19941;-43
2023/04/10 06:58:12;;;;;;;;;;;9.10;99.90;;;;;;5061862;28;19946;-40
2023/04/10 07:00:38;;;;;;;;;;;9.10;99.90;;;;;;5059937;28;19956;-41
2023/04/10 07:03:05;;;;;;;;;;;9.20;99.90;;;;;;5046946;28;20383;-41
2023/04/10 07:05:32;;;;;;;;;;;9.30;99.90;;;;;;5051060;28;20312;-40
2023/04/10 07:07:58;;;;;;;;;;;9.30;99.90;;;;;;5054033;28;20382;-45
2023/04/10 07:10:25;;;;;;;;;;;9.30;99.90;;;;;;5049824;28;20011;-43
2023/04/10 07:12:53;;;;;;;;;;;9.40;99.90;;;;;;5054013;28;20459;-42
2023/04/10 07:15:19;;;;;;;;;;;9.50;99.90;;;;;;5057563;28;19966;-43
2023/04/10 07:17:47;;;;;;;;;;;9.60;99.90;;;;;;5052968;28;19997;-40
2023/04/10 07:20:14;;;;;;;;;;;9.70;99.90;;;;;;5054205;28;19945;-45
2023/04/10 07:22:40;;;;;;;;;;;9.90;99.90;;;;;;5053114;28;20415;-41
2023/04/10 07:25:08;;;;;;;;;;;9.90;99.90;;;;;;5050089;28;19935;-39
2023/04/10 07:27:34;;;;;;;;;;;10.00;99.90;;;;;;5052413;28;20029;-40
2023/04/10 07:30:02;;;;;;;;;;;10.10;99.90;;;;;;5051190;28;19979;-42
2023/04/10 07:32:29;;;;;;;;;;;10.10;99.90;;;;;;5069515;28;20011;-42
2023/04/10 07:34:56;;;;;;;;;;;10.30;99.90;;;;;;5053175;28;19935;-40
2023/04/10 07:37:22;;;;;;;;;;;10.40;99.90;;;;;;5051793;28;19991;-39
2023/04/10 07:39:49;;;;;;;;;;;10.50;99.90;;;;;;5050827;28;19945;-43
2023/04/10 07:42:16;;;;;;;;;;;10.70;99.90;;;;;;5050478;28;19937;-39
2023/04/10 07:44:42;;;;;;;;;;;10.80;99.90;;;;;;5048926;28;20004;-40
2023/04/10 07:47:10;;;;;;;;;;;10.90;99.90;;;;;;5067877;28;19939;-39
2023/04/10 07:49:37;;;;;;;;;;;11.10;99.90;;;;;;5049150;28;19985;-39
2023/04/10 07:52:04;;;;;;;;;;;11.30;99.90;;;;;;5053711;28;20024;-40
2023/04/10 07:54:31;;;;;;;;;;;11.50;99.90;;;;;;5065951;28;20407;-40
2023/04/10 07:56:58;;;;;;;;;;;11.60;99.90;;;;;;5051648;28;19986;-41
2023/04/10 07:59:25;;;;;;;;;;;11.80;99.90;;;;;;5055681;28;20308;-40
2023/04/10 08:01:52;;;;;;;;;;;11.90;99.90;;;;;;5052441;28;19969;-41
2023/04/10 08:04:20;;;;;;;;;;;12.00;99.90;;;;;;5051206;28;19937;-40
2023/04/10 08:06:48;;;;;;;;;;;12.20;99.90;;;;;;5054899;28;20350;-42
2023/04/10 08:09:14;;;;;;;;;;;12.40;99.90;;;;;;5048643;28;19939;-41
2023/04/10 08:11:41;;;;;;;;;;;12.50;99.90;;;;;;5051369;28;20005;-41
2023/04/10 08:14:08;;;;;;;;;;;12.60;99.90;;;;;;5041638;28;20376;-38
2023/04/10 08:16:35;;;;;;;;;;;12.70;98.90;;;;;;5047490;28;19996;-40
2023/04/10 08:19:01;;;;;;;;;;;12.90;99.20;;;;;;5050081;28;19936;-41
2023/04/10 08:21:30;;;;;;;;;;;12.90;98.80;;;;;;5053955;28;19971;-40
2023/04/10 08:23:58;;;;;;;;;;;13.10;99.00;;;;;;5047728;28;20031;-41
2023/04/10 08:26:24;;;;;;;;;;;13.00;97.30;;;;;;5051153;28;19989;-39
2023/04/10 08:28:51;;;;;;;;;;;13.00;97.00;;;;;;5051741;28;19938;-40
2023/04/10 08:31:18;;;;;;;;;;;12.90;97.20;;;;;;5050479;28;20394;-39
2023/04/10 08:33:45;;;;;;;;;;;13.00;97.30;;;;;;5052408;28;19992;-39
2023/04/10 08:36:12;;;;;;;;;;;13.00;97.50;;;;;;5050487;28;20043;-39
2023/04/10 08:38:40;;;;;;;;;;;13.00;97.00;;;;;;5051419;28;19935;-40
2023/04/10 08:41:06;;;;;;;;;;;13.10;96.90;;;;;;5051242;28;19994;-40
2023/04/10 08:43:34;;;;;;;;;;;13.20;97.00;;;;;;5050520;28;19937;-40
2023/04/10 08:46:01;;;;;;;;;;;13.30;97.30;;;;;;5048936;28;20011;-38
2023/04/10 08:48:31;;;;;;;;;;;13.30;95.70;;;;;;5047839;28;20459;-41
2023/04/10 08:50:58;;;;;;;;;;;13.30;96.00;;;;;;5050756;28;19943;-40
2023/04/10 08:53:25;;;;;;;;;;;13.40;96.20;;;;;;5049689;28;19955;-39
2023/04/10 08:55:52;;;;;;;;;;;13.60;95.90;;;;;;5049397;28;20425;-39
2023/04/10 08:58:19;;;;;;;;;;;13.70;95.70;;;;;;5044569;28;20477;-39
2023/04/10 09:00:46;;;;;;;;;;;13.80;94.80;;;;;;5047913;28;19939;-39
2023/04/10 09:03:14;;;;;;;;;;;13.90;95.70;;;;;;5049348;28;19936;-39
2023/04/10 09:05:41;;;;;;;;;;;14.10;95.20;;;;;;5062775;28;19943;-40
2023/04/10 09:08:08;;;;;;;;;;;14.20;94.50;;;;;;5047368;28;21283;-39
2023/04/10 09:10:34;;;;;;;;;;;14.30;94.70;;;;;;5049715;28;20389;-39
2023/04/10 09:13:02;;;;;;;;;;;14.40;92.60;;;;;;5051002;28;20024;-40
2023/04/10 09:15:29;;;;;;;;;;;14.40;91.90;;;;;;5049986;28;19991;-40
2023/04/10 09:17:56;;;;;;;;;;;14.50;92.40;;;;;;5050535;28;20012;-39
2023/04/10 09:20:25;;;;;;;;;;;14.50;91.50;;;;;;5049981;28;19992;-39
2023/04/10 09:22:52;;;;;;;;;;;14.60;92.30;;;;;;5065358;28;20441;-40
2023/04/10 09:25:29;;;;;;;;;;;14.70;91.40;;;;;;5050736;28;19956;-39
2023/04/10 09:27:59;;;;;;;;;;;14.80;91.60;;;;;;5053053;28;19944;-39
2023/04/10 09:30:33;;;;;;;;;;;14.90;91.50;;;;;;5058234;28;20324;-40
2023/04/10 09:33:00;;;;;;;;;;;15.00;91.90;;;;;;5047830;28;19948;-38
2023/04/10 09:35:35;;;;;;;;;;;15.10;90.10;;;;;;5044053;28;20456;-41
2023/04/10 09:38:02;;;;;;;;;;;15.00;87.20;;;;;;5060783;28;20378;-39
2023/04/10 09:40:29;;;;;;;;;;;15.00;90.10;;;;;;5055515;28;19982;-39
2023/04/10 09:42:56;;;;;;;;;;;15.00;89.60;;;;;;5063819;28;19937;-43
2023/04/10 09:45:22;;;;;;;;;;;15.20;88.70;;;;;;5050360;28;19938;-39
2023/04/10 09:48:10;;;;;;;;;;;15.20;90.00;;;;;;5049053;28;20441;-39
2023/04/10 09:50:39;;;;;;;;;;;15.30;88.20;;;;;;5049999;28;20309;-39
2023/04/10 09:53:06;;;;;;;;;;;15.30;84.10;;;;;;5030696;28;20433;-38
2023/04/10 09:55:36;;;;;;;;;;;15.30;88.50;;;;;;5054703;28;19936;-39
2023/04/10 09:58:05;;;;;;;;;;;15.40;88.50;;;;;;5039106;28;19935;-39
2023/04/10 10:00:41;;;;;;;;;;;15.50;84.70;;;;;;5051572;28;20016;-39
2023/04/10 10:03:08;;;;;;;;;;;15.60;86.60;;;;;;5047974;28;19936;-38
2023/04/10 10:05:35;;;;;;;;;;;15.70;82.50;;;;;;5043575;28;20043;-39
2023/04/10 10:08:03;;;;;;;;;;;15.80;83.50;;;;;;5046884;28;19942;-39
2023/04/10 10:10:30;;;;;;;;;;;15.90;83.10;;;;;;5045047;28;20451;-40
2023/04/10 10:12:57;;;;;;;;;;;16.00;82.30;;;;;;5045549;28;20001;-38
2023/04/10 10:15:26;;;;;;;;;;;16.00;81.20;;;;;;5049356;28;20365;-38
2023/04/10 10:17:54;;;;;;;;;;;16.10;81.00;;;;;;5052168;28;20434;-38
2023/04/10 10:20:21;;;;;;;;;;;16.10;86.20;;;;;;5047572;28;19952;-37
2023/04/10 10:22:48;;;;;;;;;;;16.20;78.30;;;;;;5047871;28;19978;-39
2023/04/10 10:25:16;;;;;;;;;;;16.10;79.30;;;;;;5048896;28;19940;-39
2023/04/10 10:27:42;;;;;;;;;;;16.10;81.90;;;;;;5049823;28;19986;-39
2023/04/10 10:30:11;;;;;;;;;;;16.10;81.80;;;;;;5052202;28;19976;-39
2023/04/10 10:32:37;;;;;;;;;;;16.10;80.40;;;;;;5050852;28;19956;-39
2023/04/10 10:35:06;;;;;;;;;;;16.20;82.00;;;;;;5049466;28;19936;-39
2023/04/10 10:37:33;;;;;;;;;;;16.10;77.90;;;;;;5049651;28;19946;-39
2023/04/10 10:40:01;;;;;;;;;;;16.00;79.50;;;;;;5053692;28;19936;-39
2023/04/10 10:42:32;;;;;;;;;;;15.90;78.00;;;;;;5064171;28;20468;-39
2023/04/10 10:45:01;;;;;;;;;;;15.80;78.90;;;;;;5056108;28;19989;-38
2023/04/10 10:47:28;;;;;;;;;;;15.80;78.90;;;;;;5045442;28;19951;-39
2023/04/10 10:49:56;;;;;;;;;;;15.80;78.90;;;;;;5047920;28;19939;-39
2023/04/10 10:52:42;;;;;;;;;;;15.80;78.30;;;;;;5057581;28;19957;-39
2023/04/10 10:55:27;;;;;;;;;;;15.80;79.00;;;;;;5051540;28;20623;-38
2023/04/10 10:57:55;;;;;;;;;;;15.80;81.70;;;;;;5050333;28;20504;-38
2023/04/10 11:00:22;;;;;;;;;;;15.90;81.80;;;;;;5049246;28;20030;-38
2023/04/10 11:03:01;;;;;;;;;;;16.00;81.60;;;;;;5055338;28;20025;-38
2023/04/10 11:05:43;;;;;;;;;;;16.00;79.50;;;;;;5052849;28;19978;-38
2023/04/10 11:08:09;;;;;;;;;;;16.00;81.80;;;;;;5048906;28;20813;-38
2023/04/10 11:10:51;;;;;;;;;;;16.10;80.00;;;;;;5045666;28;20029;-38
2023/04/10 11:13:19;;;;;;;;;;;16.10;79.70;;;;;;5040771;28;19992;-39
2023/04/10 11:15:46;;;;;;;;;;;16.20;80.00;;;;;;5048802;28;20017;-38
2023/04/10 11:18:13;;;;;;;;;;;16.20;79.20;;;;;;5059377;28;19966;-38
2023/04/10 11:21:07;;;;;;;;;;;16.30;80.30;;;;;;5049865;28;20021;-38
2023/04/10 11:23:34;;;;;;;;;;;16.30;79.20;;;;;;5053011;28;19938;-37
2023/04/10 11:26:01;;;;;;;;;;;16.40;78.10;;;;;;5050007;28;19936;-38
2023/04/10 11:28:35;;;;;;;;;;;16.40;77.70;;;;;;5048536;28;19970;-39
2023/04/10 11:31:18;;;;;;;;;;;16.40;78.00;;;;;;5050700;28;19937;-38
2023/04/10 11:33:45;;;;;;;;;;;16.40;79.10;;;;;;5053952;28;19935;-39
2023/04/10 11:36:13;;;;;;;;;;;16.40;77.60;;;;;;5060459;28;19974;-38
2023/04/10 11:38:40;;;;;;;;;;;16.50;77.40;;;;;;5054056;28;19941;-38
2023/04/10 11:41:07;;;;;;;;;;;16.40;77.90;;;;;;5069964;28;19993;-38
2023/04/10 11:43:34;;;;;;;;;;;16.40;77.30;;;;;;5050177;28;20496;-37
2023/04/10 11:46:03;;;;;;;;;;;16.40;76.60;;;;;;5048693;28;19941;-39
2023/04/10 11:48:30;;;;;;;;;;;16.30;77.50;;;;;;5046234;28;20305;-39
2023/04/10 11:50:56;;;;;;;;;;;16.40;78.10;;;;;;5054133;28;20038;-37
2023/04/10 11:53:23;;;;;;;;;;;16.50;77.90;;;;;;5054244;28;19999;-38
2023/04/10 11:55:50;;;;;;;;;;;16.50;78.40;;;;;;5053253;28;20386;-39
2023/04/10 11:58:23;;;;;;;;;;;16.60;78.20;;;;;;5041309;28;20432;-38
2023/04/10 12:01:00;;;;;;;;;;;16.70;79.40;;;;;;5051019;28;20449;-39
2023/04/10 12:03:35;;;;;;;;;;;16.80;77.90;;;;;;5055836;28;20100;-39
2023/04/10 12:06:02;;;;;;;;;;;16.90;75.00;;;;;;5064475;28;20364;-39
2023/04/10 12:08:32;;;;;;;;;;;17.00;74.80;;;;;;5051831;28;20406;-38
2023/04/10 12:10:58;;;;;;;;;;;17.00;74.80;;;;;;5049543;28;19942;-39
2023/04/10 12:13:25;;;;;;;;;;;17.00;75.30;;;;;;5042868;28;19979;-37
2023/04/10 12:15:52;;;;;;;;;;;17.00;74.40;;;;;;5049363;28;20311;-38
2023/04/10 12:18:18;;;;;;;;;;;17.10;74.70;;;;;;5062757;28;19959;-39
2023/04/10 12:20:46;;;;;;;;;;;17.10;75.60;;;;;;5047119;28;19937;-39
2023/04/10 12:23:13;;;;;;;;;;;17.20;75.50;;;;;;5049391;28;19936;-38
2023/04/10 12:25:40;;;;;;;;;;;17.30;75.00;;;;;;5050063;28;20377;-40
2023/04/10 12:28:06;;;;;;;;;;;17.40;75.50;;;;;;5045112;28;19991;-38
2023/04/10 12:30:33;;;;;;;;;;;17.40;74.30;;;;;;5036120;28;20405;-38
2023/04/10 12:33:04;;;;;;;;;;;17.40;73.80;;;;;;5042336;28;20034;-39
2023/04/10 12:35:37;;;;;;;;;;;17.30;73.30;;;;;;5043372;28;19934;-38
2023/04/10 12:38:05;;;;;;;;;;;17.20;75.40;;;;;;5046670;28;20034;-38
2023/04/10 12:40:39;;;;;;;;;;;17.20;74.00;;;;;;5047262;28;19995;-38
2023/04/10 12:43:06;;;;;;;;;;;17.10;75.00;;;;;;5046205;28;19996;-38
2023/04/10 12:45:42;;;;;;;;;;;17.00;75.60;;;;;;5048837;28;20002;-38
2023/04/10 12:48:08;;;;;;;;;;;17.00;75.70;;;;;;5044242;28;19939;-37
2023/04/10 12:50:40;;;;;;;;;;;16.90;76.20;;;;;;5045938;28;19978;-38
2023/04/10 12:53:10;;;;;;;;;;;16.80;75.80;;;;;;5049094;28;20444;-37
2023/04/10 12:55:36;;;;;;;;;;;16.80;76.20;;;;;;5059322;28;19940;-38
2023/04/10 12:58:15;;;;;;;;;;;16.80;77.40;;;;;;5047213;28;19941;-38
2023/04/10 13:00:42;;;;;;;;;;;16.70;77.00;;;;;;5039897;28;20043;-38
2023/04/10 13:03:08;;;;;;;;;;;16.70;77.60;;;;;;5048072;28;19985;-38
2023/04/10 13:05:35;;;;;;;;;;;16.80;77.90;;;;;;5051662;28;19938;-38
2023/04/10 13:08:02;;;;;;;;;;;16.80;78.30;;;;;;5047030;28;19941;-39
2023/04/10 13:10:30;;;;;;;;;;;16.90;78.40;;;;;;5066151;28;19987;-38
2023/04/10 13:12:57;;;;;;;;;;;16.90;78.60;;;;;;5060252;28;20027;-40
2023/04/10 13:15:24;;;;;;;;;;;17.00;78.40;;;;;;5048802;28;20026;-38
2023/04/10 13:17:51;;;;;;;;;;;17.00;78.00;;;;;;5043654;28;19954;-38
2023/04/10 13:20:17;;;;;;;;;;;17.00;78.80;;;;;;5041671;28;19945;-38
2023/04/10 13:22:44;;;;;;;;;;;17.10;79.60;;;;;;5037033;28;19998;-38
2023/04/10 13:25:11;;;;;;;;;;;17.10;79.80;;;;;;5045164;28;20028;-39
2023/04/10 13:27:39;;;;;;;;;;;17.20;78.60;;;;;;5060915;28;19980;-38
2023/04/10 13:30:06;;;;;;;;;;;17.10;78.70;;;;;;5046553;28;19993;-38
2023/04/10 13:32:32;;;;;;;;;;;17.10;78.20;;;;;;5045505;28;19987;-39
2023/04/10 13:34:59;;;;;;;;;;;17.10;78.70;;;;;;5043026;28;20428;-38
2023/04/10 13:37:26;;;;;;;;;;;17.10;79.30;;;;;;5056316;28;20032;-40
2023/04/10 13:39:53;;;;;;;;;;;17.00;78.80;;;;;;5042414;28;19938;-38
2023/04/10 13:42:20;;;;;;;;;;;17.00;78.40;;;;;;5061327;28;19946;-38
2023/04/10 13:44:48;;;;;;;;;;;17.00;78.50;;;;;;5045888;28;19942;-38
2023/04/10 13:47:15;;;;;;;;;;;16.90;79.30;;;;;;5042269;28;19980;-39
2023/04/10 13:49:41;;;;;;;;;;;16.80;79.10;;;;;;5051862;28;20027;-38
2023/04/10 13:52:08;;;;;;;;;;;16.80;80.10;;;;;;5052981;28;19977;-37
2023/04/10 13:54:35;;;;;;;;;;;16.70;80.90;;;;;;5049073;28;19955;-38
2023/04/10 13:57:01;;;;;;;;;;;16.70;80.30;;;;;;5050946;28;19939;-38
2023/04/10 13:59:28;;;;;;;;;;;16.70;81.50;;;;;;5047016;28;19983;-38
2023/04/10 14:01:56;;;;;;;;;;;16.70;81.60;;;;;;5047424;28;19974;-38
2023/04/10 14:04:22;;;;;;;;;;;16.60;81.20;;;;;;5039439;28;19944;-39
2023/04/10 14:06:51;;;;;;;;;;;16.60;80.80;;;;;;5047898;28;19994;-38
2023/04/10 14:09:18;;;;;;;;;;;16.50;81.90;;;;;;5045370;28;19939;-38
2023/04/10 14:11:45;;;;;;;;;;;16.50;81.30;;;;;;5051799;28;19933;-39
2023/04/10 14:14:11;;;;;;;;;;;16.40;81.70;;;;;;5057426;28;20093;-38
2023/04/10 14:16:38;;;;;;;;;;;16.40;82.10;;;;;;5051527;28;19935;-39
2023/04/10 14:19:06;;;;;;;;;;;16.30;82.90;;;;;;5047682;28;19941;-38
2023/04/10 14:21:33;;;;;;;;;;;16.20;82.40;;;;;;5048838;28;20027;-37
2023/04/10 14:23:59;;;;;;;;;;;16.20;82.30;;;;;;5057827;28;19938;-38
2023/04/10 14:26:26;;;;;;;;;;;16.20;83.10;;;;;;5048077;28;19943;-39